createdAt,value
2022-09-07T00:00:40.331Z,49.12
2022-09-07T00:03:07.263Z,48.77
2022-09-07T00:05:34.478Z,48.96
2022-09-07T00:08:01.243Z,48.76
2022-09-07T00:10:27.927Z,49.05
2022-09-07T00:12:54.655Z,48.90
2022-09-07T00:15:22.437Z,49.13
2022-09-07T00:17:49.111Z,49.20
2022-09-07T00:20:16.000Z,49.28
2022-09-07T00:22:42.623Z,48.99
2022-09-07T00:25:09.478Z,49.52
2022-09-07T00:27:36.101Z,49.25
2022-09-07T00:30:02.947Z,49.34
2022-09-07T00:32:29.612Z,49.39
2022-09-07T00:34:56.260Z,49.72
2022-09-07T00:37:23.169Z,49.61
2022-09-07T00:39:50.536Z,50.16
2022-09-07T00:42:20.816Z,50.10
2022-09-07T00:45:08.014Z,49.84
2022-09-07T00:47:40.743Z,49.63
2022-09-07T00:50:13.697Z,49.80
2022-09-07T00:52:41.266Z,50.25
2022-09-07T00:55:10.839Z,49.90
2022-09-07T00:57:39.248Z,49.78
2022-09-07T01:00:06.791Z,49.77
2022-09-07T01:02:33.650Z,49.97
2022-09-07T01:05:09.528Z,49.83
2022-09-07T01:07:36.866Z,49.83
2022-09-07T01:10:04.073Z,49.78
2022-09-07T01:12:31.430Z,49.81
2022-09-07T01:14:58.087Z,50.14
2022-09-07T01:17:42.625Z,49.89
2022-09-07T01:20:09.417Z,49.56
2022-09-07T01:22:48.991Z,49.65
2022-09-07T01:25:15.567Z,49.44
2022-09-07T01:28:05.797Z,49.81
2022-09-07T01:30:37.394Z,49.96
2022-09-07T01:33:13.984Z,49.94
2022-09-07T01:35:52.853Z,50.02
2022-09-07T01:38:59.123Z,50.02
2022-09-07T01:41:53.332Z,50.06
2022-09-07T01:44:38.747Z,49.71
2022-09-07T01:47:18.039Z,49.73
2022-09-07T01:49:59.464Z,49.75
2022-09-07T01:52:38.343Z,50.23
2022-09-07T01:55:15.912Z,50.20
2022-09-07T01:57:46.043Z,50.01
2022-09-07T02:00:15.364Z,49.82
2022-09-07T02:03:05.014Z,49.96
2022-09-07T02:05:40.122Z,49.69
2022-09-07T02:08:13.957Z,49.87
2022-09-07T02:10:48.398Z,49.70
2022-09-07T02:13:22.281Z,49.85
2022-09-07T02:15:52.695Z,49.80
2022-09-07T02:18:20.309Z,50.10
2022-09-07T02:20:49.616Z,50.15
2022-09-07T02:23:20.007Z,50.02
2022-09-07T02:25:53.609Z,50.15
2022-09-07T02:28:32.879Z,50.30
2022-09-07T02:31:00.420Z,49.93
2022-09-07T02:33:29.209Z,50.48
2022-09-07T02:35:56.779Z,50.37
2022-09-07T02:38:23.790Z,50.60
2022-09-07T02:40:55.899Z,50.57
2022-09-07T02:43:24.153Z,50.37
2022-09-07T02:45:58.559Z,50.23
2022-09-07T02:48:28.045Z,50.12
2022-09-07T02:51:18.682Z,50.01
2022-09-07T02:54:19.724Z,50.21
2022-09-07T02:57:17.664Z,50.13
2022-09-07T03:00:11.266Z,49.91
2022-09-07T03:02:43.910Z,50.39
2022-09-07T03:05:18.310Z,49.89
2022-09-07T03:08:05.494Z,50.24
2022-09-07T03:10:32.621Z,49.90
2022-09-07T03:12:59.362Z,49.85
2022-09-07T03:15:27.571Z,50.31
2022-09-07T03:17:54.545Z,49.91
2022-09-07T03:20:21.922Z,49.98
2022-09-07T03:22:52.299Z,50.25
2022-09-07T03:25:19.539Z,50.31
2022-09-07T03:27:46.227Z,50.62
2022-09-07T03:30:13.488Z,50.70
2022-09-07T03:32:40.175Z,50.48
2022-09-07T03:35:08.173Z,50.71
2022-09-07T03:37:38.871Z,50.65
2022-09-07T03:40:07.831Z,50.92
2022-09-07T03:42:34.933Z,50.64
2022-09-07T03:45:01.803Z,50.92
2022-09-07T03:47:28.476Z,50.99
2022-09-07T03:49:55.165Z,51.03
2022-09-07T03:52:22.165Z,50.92
2022-09-07T03:54:48.808Z,51.11
2022-09-07T03:57:15.437Z,51.02
2022-09-07T03:59:42.277Z,50.87
2022-09-07T04:02:09.047Z,50.89
2022-09-07T04:04:35.702Z,51.55
2022-09-07T04:07:02.375Z,51.35
2022-09-07T04:09:29.208Z,51.15
2022-09-07T04:11:56.030Z,51.35
2022-09-07T04:14:22.758Z,51.49
2022-09-07T04:16:49.783Z,51.27
2022-09-07T04:19:17.148Z,51.72
2022-09-07T04:21:47.181Z,51.51
2022-09-07T04:24:15.122Z,51.44
2022-09-07T04:26:43.610Z,51.81
2022-09-07T04:29:11.508Z,51.39
2022-09-07T04:31:38.742Z,51.49
2022-09-07T04:34:06.561Z,51.64
2022-09-07T04:36:33.810Z,51.73
2022-09-07T04:39:02.490Z,51.73
2022-09-07T04:41:31.144Z,51.35
2022-09-07T04:44:00.451Z,51.44
2022-09-07T04:46:35.711Z,51.35
2022-09-07T04:49:06.651Z,51.85
2022-09-07T04:51:33.657Z,51.76
2022-09-07T04:54:01.855Z,51.50
2022-09-07T04:56:29.220Z,51.66
2022-09-07T04:58:56.714Z,51.63
2022-09-07T05:01:24.937Z,51.66
2022-09-07T05:03:52.124Z,51.38
2022-09-07T05:06:20.302Z,51.72
2022-09-07T05:08:49.219Z,51.76
2022-09-07T05:11:17.073Z,51.49
2022-09-07T05:13:43.868Z,51.24
2022-09-07T05:16:12.680Z,51.40
2022-09-07T05:18:39.467Z,51.41
2022-09-07T05:21:17.190Z,51.57
2022-09-07T05:23:44.391Z,51.62
2022-09-07T05:26:12.213Z,51.24
2022-09-07T05:28:38.971Z,51.52
2022-09-07T05:31:18.331Z,51.58
2022-09-07T05:36:40.480Z,51.76
2022-09-07T05:39:07.785Z,51.96
2022-09-07T05:41:34.799Z,52.01
2022-09-07T05:46:48.501Z,51.93
2022-09-07T05:49:15.179Z,51.66
2022-09-07T05:51:41.875Z,52.18
2022-09-07T05:54:08.547Z,52.35
2022-09-07T05:56:36.233Z,52.16
2022-09-07T05:59:04.060Z,52.32
2022-09-07T06:01:31.759Z,52.10
2022-09-07T06:03:58.877Z,52.16
2022-09-07T06:06:25.568Z,52.26
2022-09-07T06:08:53.587Z,52.22
2022-09-07T06:11:22.274Z,52.32
2022-09-07T06:13:49.287Z,52.99
2022-09-07T06:16:16.909Z,52.74
2022-09-07T06:18:45.439Z,52.84
2022-09-07T06:21:15.278Z,53.07
2022-09-07T06:23:43.064Z,52.59
2022-09-07T06:26:10.621Z,52.59
2022-09-07T06:28:39.362Z,52.70
2022-09-07T06:31:11.427Z,52.80
2022-09-07T06:33:38.794Z,53.21
2022-09-07T06:36:15.041Z,53.01
2022-09-07T06:38:42.169Z,53.11
2022-09-07T06:44:08.615Z,53.44
2022-09-07T06:49:23.546Z,53.39
2022-09-07T06:51:50.351Z,53.39
2022-09-07T06:57:09.034Z,53.98
2022-09-07T06:59:36.720Z,54.14
2022-09-07T07:02:04.398Z,53.88
2022-09-07T07:04:32.404Z,54.46
2022-09-07T07:07:00.768Z,54.55
2022-09-07T07:09:27.404Z,54.60
2022-09-07T07:11:54.255Z,54.78
2022-09-07T07:14:21.214Z,55.00
2022-09-07T07:16:48.005Z,55.13
2022-09-07T07:19:15.337Z,55.20
2022-09-07T07:22:07.706Z,54.85
2022-09-07T07:24:29.065Z,55.78
2022-09-07T07:26:55.848Z,55.58
2022-09-07T07:29:25.012Z,55.58
2022-09-07T07:31:52.913Z,56.02
2022-09-07T07:34:19.657Z,56.47
2022-09-07T07:36:46.470Z,56.36
2022-09-07T07:42:03.155Z,56.46
2022-09-07T07:44:32.193Z,56.60
2022-09-07T07:46:58.874Z,56.84
2022-09-07T07:49:25.868Z,56.56
2022-09-07T07:54:43.383Z,56.50
2022-09-07T07:57:10.494Z,57.21
2022-09-07T07:59:37.557Z,57.26
2022-09-07T08:02:05.877Z,56.17
2022-09-07T08:04:33.805Z,56.90
2022-09-07T08:07:03.473Z,56.80
2022-09-07T08:09:32.484Z,56.68
2022-09-07T08:11:59.138Z,56.23
2022-09-07T08:14:25.900Z,56.32
2022-09-07T08:16:52.530Z,55.22
2022-09-07T08:19:19.120Z,55.36
2022-09-07T08:21:45.817Z,55.78
2022-09-07T08:24:12.465Z,56.33
2022-09-07T08:26:39.206Z,56.46
2022-09-07T08:29:05.976Z,56.40
2022-09-07T08:31:33.060Z,56.21
2022-09-07T08:34:00.074Z,55.57
2022-09-07T08:36:26.715Z,56.22
2022-09-07T08:38:53.859Z,56.78
2022-09-07T08:41:32.577Z,56.69
2022-09-07T08:44:06.442Z,57.08
2022-09-07T08:46:34.936Z,57.39
2022-09-07T08:49:03.510Z,57.23
2022-09-07T08:51:57.124Z,57.14
2022-09-07T08:54:23.718Z,57.54
2022-09-07T08:59:43.129Z,57.27
2022-09-07T09:02:32.598Z,57.10
2022-09-07T09:05:17.814Z,57.29
2022-09-07T09:08:07.411Z,57.17
2022-09-07T09:10:49.325Z,57.01
2022-09-07T09:13:57.691Z,57.55
2022-09-07T09:16:36.173Z,56.67
2022-09-07T09:19:12.219Z,56.81
2022-09-07T09:21:40.558Z,57.85
2022-09-07T09:24:30.985Z,58.32
2022-09-07T09:26:57.716Z,57.47
2022-09-07T09:29:24.278Z,58.03
2022-09-07T09:31:50.916Z,57.29
2022-09-07T09:34:23.658Z,58.35
2022-09-07T09:36:54.705Z,57.59
2022-09-07T09:39:32.846Z,57.80
2022-09-07T09:42:07.345Z,57.87
2022-09-07T09:44:37.615Z,58.94
2022-09-07T09:49:53.694Z,57.92
2022-09-07T09:52:31.837Z,58.98
2022-09-07T09:55:30.117Z,56.78
2022-09-07T10:01:21.269Z,57.72
2022-09-07T10:06:18.529Z,58.31
2022-09-07T10:09:02.059Z,57.92
2022-09-07T10:14:42.491Z,58.71
2022-09-07T10:17:34.772Z,57.74
2022-09-07T10:20:16.402Z,58.72
2022-09-07T10:22:57.371Z,58.56
2022-09-07T10:25:41.962Z,58.35
2022-09-07T10:28:12.697Z,58.39
2022-09-07T10:30:41.874Z,58.80
2022-09-07T10:33:24.641Z,58.84
2022-09-07T10:36:01.254Z,59.10
2022-09-07T10:38:28.808Z,59.74
2022-09-07T10:41:07.343Z,59.74
2022-09-07T10:43:49.903Z,59.90
2022-09-07T10:49:25.169Z,59.51
2022-09-07T10:52:00.855Z,59.69
2022-09-07T10:54:33.446Z,60.52
2022-09-07T10:57:28.255Z,59.81
2022-09-07T11:00:16.845Z,60.05
2022-09-07T11:06:10.448Z,59.31
2022-09-07T11:09:20.253Z,59.78
2022-09-07T11:12:04.377Z,59.75
2022-09-07T11:14:47.290Z,59.54
2022-09-07T11:17:26.529Z,60.34
2022-09-07T11:20:27.076Z,59.62
2022-09-07T11:23:04.820Z,59.67
2022-09-07T11:25:35.803Z,60.96
2022-09-07T11:28:27.675Z,60.20
2022-09-07T11:31:00.807Z,60.74
2022-09-07T11:33:35.472Z,60.05
2022-09-07T11:36:22.274Z,60.63
2022-09-07T11:38:55.716Z,60.15
2022-09-07T11:41:25.472Z,60.78
2022-09-07T11:44:26.297Z,61.05
2022-09-07T11:46:55.755Z,61.77
2022-09-07T11:49:25.811Z,61.31
2022-09-07T11:52:06.050Z,60.47
2022-09-07T11:54:43.658Z,60.08
2022-09-07T11:57:16.258Z,60.03
2022-09-07T12:00:06.970Z,61.26
2022-09-07T12:02:58.812Z,60.76
2022-09-07T12:05:45.718Z,61.15
2022-09-07T12:08:32.359Z,60.94
2022-09-07T12:11:07.898Z,61.55
2022-09-07T12:13:34.981Z,60.54
2022-09-07T12:16:12.189Z,60.48
2022-09-07T12:18:44.744Z,61.74
2022-09-07T12:21:34.433Z,61.01
2022-09-07T12:24:01.034Z,60.73
2022-09-07T12:26:50.156Z,61.32
2022-09-07T12:29:22.866Z,61.26
2022-09-07T12:31:58.834Z,61.66
2022-09-07T12:34:32.148Z,61.72
2022-09-07T12:37:00.403Z,61.69
2022-09-07T12:39:30.554Z,60.95
2022-09-07T12:45:30.024Z,61.24
2022-09-07T12:47:58.307Z,61.49
2022-09-07T12:50:39.153Z,61.86
2022-09-07T12:53:24.954Z,61.92
2022-09-07T12:58:44.605Z,62.74
2022-09-07T13:01:55.952Z,62.51
2022-09-07T13:04:25.340Z,62.91
2022-09-07T13:07:03.835Z,63.44
2022-09-07T13:09:34.590Z,62.00
2022-09-07T13:15:12.705Z,62.43
2022-09-07T13:17:55.869Z,62.92
2022-09-07T13:20:30.240Z,62.09
2022-09-07T13:23:08.202Z,62.39
2022-09-07T13:25:37.805Z,62.03
2022-09-07T13:28:13.202Z,63.29
2022-09-07T13:30:48.446Z,62.32
2022-09-07T13:33:24.276Z,62.80
2022-09-07T13:36:05.168Z,63.36
2022-09-07T13:38:33.650Z,63.01
2022-09-07T13:41:32.319Z,62.65
2022-09-07T13:44:01.956Z,62.74
2022-09-07T13:46:45.037Z,62.51
2022-09-07T13:49:27.966Z,62.34
2022-09-07T13:52:19.286Z,61.52
2022-09-07T13:54:49.260Z,62.30
2022-09-07T13:57:21.782Z,62.42
2022-09-07T13:59:51.478Z,61.97
2022-09-07T14:02:28.356Z,60.69
2022-09-07T14:04:56.683Z,62.30
2022-09-07T14:07:25.196Z,62.61
2022-09-07T14:10:25.052Z,62.09
2022-09-07T14:12:53.413Z,61.88
2022-09-07T14:15:33.826Z,62.84
2022-09-07T14:18:04.759Z,62.71
2022-09-07T14:20:32.498Z,62.67
2022-09-07T14:22:59.363Z,62.72
2022-09-07T14:25:26.470Z,62.00
2022-09-07T14:27:53.301Z,61.96
2022-09-07T14:30:22.350Z,61.87
2022-09-07T14:32:52.448Z,61.86
2022-09-07T14:35:21.634Z,61.17
2022-09-07T14:37:49.127Z,62.54
2022-09-07T14:40:21.990Z,63.09
2022-09-07T14:42:53.935Z,62.72
2022-09-07T14:45:20.635Z,63.53
2022-09-07T14:47:49.134Z,62.76
2022-09-07T14:50:21.610Z,62.46
2022-09-07T14:53:34.284Z,63.30
2022-09-07T14:55:42.096Z,62.66
2022-09-07T15:01:38.493Z,62.95
2022-09-07T15:04:16.688Z,62.64
2022-09-07T15:09:36.713Z,62.58
2022-09-07T15:12:38.600Z,64.03
2022-09-07T15:15:39.540Z,64.02
2022-09-07T15:18:58.202Z,64.22
2022-09-07T15:21:29.976Z,65.27
2022-09-07T15:23:58.627Z,64.92
2022-09-07T15:29:20.702Z,65.99
2022-09-07T15:32:01.104Z,65.80
2022-09-07T15:34:30.846Z,65.30
2022-09-07T15:37:00.865Z,64.78
2022-09-07T15:39:29.960Z,64.45
2022-09-07T15:41:57.681Z,64.52
2022-09-07T15:44:26.553Z,64.27
2022-09-07T15:49:47.333Z,63.61
2022-09-07T15:52:16.784Z,63.77
2022-09-07T15:54:43.702Z,64.04
2022-09-07T15:59:57.114Z,63.78
2022-09-07T16:05:10.626Z,64.07
2022-09-07T16:10:24.518Z,63.35
2022-09-07T16:15:45.809Z,63.69
2022-09-07T16:18:16.559Z,63.38
2022-09-07T16:20:43.988Z,63.75
2022-09-07T16:23:13.676Z,62.86
2022-09-07T16:25:42.361Z,63.88
2022-09-07T16:28:09.503Z,63.46
2022-09-07T16:30:39.474Z,64.04
2022-09-07T16:33:06.363Z,64.87
2022-09-07T16:35:33.110Z,64.66
2022-09-07T16:40:46.721Z,64.72
2022-09-07T16:43:13.468Z,64.13
2022-09-07T16:48:26.805Z,64.31
2022-09-07T16:51:00.618Z,64.84
2022-09-07T16:53:35.700Z,64.99
2022-09-07T16:56:06.158Z,64.60
2022-09-07T16:58:36.291Z,64.30
2022-09-07T17:01:03.911Z,64.15
2022-09-07T17:03:30.736Z,63.75
2022-09-07T17:06:00.409Z,63.50
2022-09-07T17:08:27.197Z,64.51
2022-09-07T17:11:05.859Z,64.21
2022-09-07T17:13:33.970Z,63.67
2022-09-07T17:16:11.380Z,64.05
2022-09-07T17:21:25.545Z,63.87
2022-09-07T17:23:55.617Z,63.82
2022-09-07T17:26:23.659Z,64.03
2022-09-07T17:28:54.587Z,64.56
2022-09-07T17:34:14.668Z,64.57
2022-09-07T17:36:42.618Z,64.72
2022-09-07T17:39:18.426Z,65.13
2022-09-07T17:41:47.027Z,65.56
2022-09-07T17:44:13.639Z,65.16
2022-09-07T17:46:40.250Z,64.67
2022-09-07T17:49:12.233Z,64.43
2022-09-07T17:51:39.342Z,64.99
2022-09-07T17:54:11.662Z,64.84
2022-09-07T17:56:39.875Z,64.86
2022-09-07T18:01:56.652Z,64.74
2022-09-07T18:04:23.607Z,65.28
2022-09-07T18:06:50.639Z,64.86
2022-09-07T18:09:19.832Z,64.60
2022-09-07T18:11:48.670Z,64.54
2022-09-07T18:14:16.509Z,64.54
2022-09-07T18:16:44.994Z,64.26
2022-09-07T18:19:12.706Z,64.96
2022-09-07T18:21:43.351Z,64.41
2022-09-07T18:24:19.279Z,64.56
2022-09-07T18:26:51.306Z,64.14
2022-09-07T18:29:39.187Z,64.13
2022-09-07T18:32:09.401Z,64.60
2022-09-07T18:34:37.277Z,64.33
2022-09-07T18:37:04.860Z,64.87
2022-09-07T18:39:32.355Z,64.55
2022-09-07T18:41:59.141Z,64.31
2022-09-07T18:47:22.344Z,63.78
2022-09-07T18:49:51.253Z,63.69
2022-09-07T18:55:07.096Z,63.86
2022-09-07T18:57:34.244Z,63.38
2022-09-07T19:00:00.921Z,63.61
2022-09-07T19:02:27.575Z,63.12
2022-09-07T19:07:40.793Z,63.25
2022-09-07T19:10:08.103Z,62.78
2022-09-07T19:12:34.704Z,62.90
2022-09-07T19:15:01.262Z,62.61
2022-09-07T19:17:27.862Z,62.65
2022-09-07T19:19:54.463Z,62.51
2022-09-07T19:22:21.041Z,62.41
2022-09-07T19:24:47.656Z,62.35
2022-09-07T19:27:14.535Z,62.33
2022-09-07T19:29:41.144Z,62.14
2022-09-07T19:32:09.028Z,62.24
2022-09-07T19:34:41.362Z,61.69
2022-09-07T19:37:10.342Z,61.75
2022-09-07T19:39:37.276Z,62.08
2022-09-07T19:42:05.119Z,61.66
2022-09-07T19:44:32.217Z,61.97
2022-09-07T19:47:00.102Z,61.65
2022-09-07T19:49:27.051Z,61.81
2022-09-07T19:51:53.640Z,61.73
2022-09-07T19:54:20.276Z,61.49
2022-09-07T19:56:46.952Z,61.63
2022-09-07T19:59:14.644Z,61.83
2022-09-07T20:01:46.034Z,61.22
2022-09-07T20:04:19.686Z,61.80
2022-09-07T20:06:49.696Z,61.23
2022-09-07T20:09:18.040Z,61.28
2022-09-07T20:11:46.889Z,61.72
2022-09-07T20:14:15.188Z,61.41
2022-09-07T20:16:42.033Z,61.23
2022-09-07T20:19:11.193Z,61.24
2022-09-07T20:21:37.837Z,61.57
2022-09-07T20:24:04.855Z,61.39
2022-09-07T20:26:32.495Z,61.31
2022-09-07T20:29:16.702Z,61.20
2022-09-07T20:31:46.844Z,60.85
2022-09-07T20:34:13.713Z,61.05
2022-09-07T20:36:40.315Z,61.38
2022-09-07T20:39:06.973Z,61.43
2022-09-07T20:41:34.806Z,61.35
2022-09-07T20:44:02.929Z,61.81
2022-09-07T20:46:30.474Z,61.55
2022-09-07T20:48:57.644Z,61.24
2022-09-07T20:51:24.731Z,61.58
2022-09-07T20:53:51.408Z,61.73
2022-09-07T20:56:20.799Z,61.30
2022-09-07T20:58:48.493Z,61.78
2022-09-07T21:01:19.331Z,61.18
2022-09-07T21:03:49.422Z,61.94
2022-09-07T21:06:16.889Z,61.30
2022-09-07T21:08:44.961Z,61.67
2022-09-07T21:11:17.300Z,61.73
2022-09-07T21:13:44.243Z,61.52
2022-09-07T21:16:17.180Z,61.87
2022-09-07T21:18:44.389Z,61.31
2022-09-07T21:21:20.401Z,61.59
2022-09-07T21:23:47.951Z,61.88
2022-09-07T21:26:15.095Z,61.73
2022-09-07T21:28:41.754Z,61.46
2022-09-07T21:31:09.565Z,61.52
2022-09-07T21:33:37.631Z,61.40
2022-09-07T21:36:12.591Z,61.80
2022-09-07T21:38:41.154Z,62.07
2022-09-07T21:41:09.137Z,61.95
2022-09-07T21:43:35.953Z,61.65
2022-09-07T21:46:14.199Z,61.82
2022-09-07T21:48:40.804Z,61.69
2022-09-07T21:51:07.847Z,61.59
2022-09-07T21:53:35.045Z,61.47
2022-09-07T21:56:07.089Z,61.44
2022-09-07T21:58:33.683Z,60.94
2022-09-07T22:01:09.287Z,60.43
2022-09-07T22:03:36.194Z,60.78
2022-09-07T22:06:02.926Z,60.85
2022-09-07T22:08:29.520Z,60.54
2022-09-07T22:11:10.029Z,60.81
2022-09-07T22:13:37.195Z,60.46
2022-09-07T22:16:04.722Z,60.50
2022-09-07T22:18:31.744Z,60.47
2022-09-07T22:21:04.693Z,59.73
2022-09-07T22:23:33.190Z,60.36
2022-09-07T22:26:00.243Z,60.17
2022-09-07T22:28:29.279Z,60.10
2022-09-07T22:30:56.996Z,60.03
2022-09-07T22:33:23.731Z,60.13
2022-09-07T22:35:50.788Z,59.87
2022-09-07T22:38:17.446Z,59.78
2022-09-07T22:40:44.043Z,59.70
2022-09-07T22:43:10.743Z,59.13
2022-09-07T22:45:37.382Z,59.60
2022-09-07T22:48:03.977Z,59.55
2022-09-07T22:50:32.212Z,59.02
2022-09-07T22:52:58.785Z,59.14
2022-09-07T22:55:25.390Z,58.81
2022-09-07T22:57:51.981Z,58.79
2022-09-07T23:00:18.584Z,58.62
2022-09-07T23:02:45.169Z,58.39
2022-09-07T23:05:11.944Z,58.41
2022-09-07T23:07:38.729Z,58.94
2022-09-07T23:10:05.619Z,58.61
2022-09-07T23:12:32.262Z,58.83
2022-09-07T23:14:58.857Z,59.17
2022-09-07T23:17:25.455Z,58.52
2022-09-07T23:19:52.043Z,58.57
2022-09-07T23:22:18.635Z,58.85
2022-09-07T23:24:45.213Z,58.80
2022-09-07T23:27:11.804Z,58.62
2022-09-07T23:29:38.386Z,58.27
2022-09-07T23:32:05.065Z,58.17
2022-09-07T23:34:31.628Z,58.72
2022-09-07T23:36:58.249Z,58.56
2022-09-07T23:39:24.845Z,58.41
2022-09-07T23:41:51.435Z,58.43
2022-09-07T23:44:18.025Z,58.30
2022-09-07T23:46:44.720Z,58.17
2022-09-07T23:49:11.376Z,57.92
2022-09-07T23:51:37.970Z,58.26
2022-09-07T23:54:04.702Z,57.91
2022-09-07T23:56:32.649Z,58.08
2022-09-07T23:58:59.281Z,58.08
